Baltica — SNGH — position and weather

sailwx.info

Track history (hours):
 
Tides and Currents Weather Stations Pressure Air Temp Water Temp Dewpoint Dewpoint Depression Visibility Wind Speed Wind Dir Waves Ship Positions

Oceanographic research ship Baltica (Poland)

Detailed information on ship capabilities available from University of Delaware's Ocean Information Center.

Last reported at 2017-Sep-25 05:12 UTC. Time now 2017-Sep-25 11:51 UTC.
Position N 55°25' E 018°38'.

Length 41 m; beam 9 m.

Type: Fishing. MMSI: 261061000.

Date/timePositionNaut miles runAvg speedWind from/ knotsBaromVisibWave heightAir tempDewpointWater temp
2017-Sep-25 05:12N 55°25' E 018°38'1 6.8
2017-Sep-25 05:00N 55°24' E 018°37'4 7.4
2017-Sep-25 04:30N 55°20' E 018°40'1 2.9
2017-Sep-25 04:00N 55°20' E 018°42'2 0.7
2017-Sep-25 00:45N 55°20' E 018°46'0 0.6
2017-Sep-25 00:31N 55°20' E 018°46'0 0.6
2017-Sep-25 00:00N 55°20' E 018°46'3 6.7
2017-Sep-24 23:30N 55°20' E 018°40'3 6.6
2017-Sep-24 23:00N 55°20' E 018°34'0 0.6
2017-Sep-24 22:31N 55°20' E 018°35'3 0.9
2017-Sep-24 18:59N 55°20' E 018°40'6 7.4
2017-Sep-24 18:08N 55°14' E 018°40'2 8.9
2017-Sep-24 17:57N 55°12' E 018°40'4 8.8
2017-Sep-24 17:30N 55°08' E 018°40'4 7.8
2017-Sep-24 17:00N 55°04' E 018°39'2 4.9
2017-Sep-24 16:30N 55°05' E 018°35'1 2.0
2017-Sep-24 16:00N 55°05' E 018°37'1 3.0
2017-Sep-24 15:30N 55°04' E 018°39'3 5.1
2017-Sep-24 15:00N 55°02' E 018°40'4 8.1
2017-Sep-24 14:30N 54°58' E 018°40'2 3.7
2017-Sep-24 14:00N 54°56' E 018°40'0 1.0
2017-Sep-24 13:30N 54°56' E 018°41'1 2.1
2017-Sep-24 13:00N 54°55' E 018°42'1 1.8
2017-Sep-24 12:30N 54°55' E 018°44'3 5.7
2017-Sep-24 12:00N 54°53' E 018°40'4 8.3
2017-Sep-24 11:30N 54°49' E 018°40'2 4.9
2017-Sep-24 11:00N 54°50' E 018°36'4 7.7
2017-Sep-24 10:30N 54°52' E 018°30'4 7.7
2017-Sep-24 10:00N 54°54' E 018°25'4 7.5
2017-Sep-24 09:30N 54°56' E 018°20'4 7.0
2017-Sep-24 08:59N 55°00' E 018°20'27 5.8
2017-Sep-24 04:16N 55°27' E 018°22'0 0.4
2017-Sep-24 03:42N 55°27' E 018°22'0 0.4
2017-Sep-24 03:30N 55°27' E 018°22'2 0.5
2017-Sep-24 00:31N 55°27' E 018°25'0 0.5
2017-Sep-24 00:20N 55°27' E 018°25'0 0.5
2017-Sep-24 00:01N 55°27' E 018°25'5 6.6
2017-Sep-23 23:17N 55°26' E 018°17'4 4.0
2017-Sep-23 22:12N 55°25' E 018°10'0 0.5
2017-Sep-23 21:59N 55°25' E 018°10'  
2017-Sep-16 13:15N 54°45' E 014°55'1 2.1
2017-Sep-16 12:57N 54°45' E 014°56'114 3.8
2017-Sep-15 06:48N 54°52' E 018°13'2 5.6
2017-Sep-15 06:26N 54°52' E 018°16'2 5.7
2017-Sep-15 06:00N 54°52' E 018°21'3 6.0
2017-Sep-15 05:30N 54°51' E 018°26'  
Track history (hours):
 
Tides and Currents Weather Stations Pressure Air Temp Water Temp Dewpoint Dewpoint Depression Visibility Wind Speed Wind Dir Waves Ship Positions

Oceanographic research ship Baltica (Poland)

Detailed information on ship capabilities available from University of Delaware's Ocean Information Center.

Last reported at 2017-Sep-25 05:12 UTC. Time now 2017-Sep-25 11:51 UTC.
Position N 55°25' E 018°38'.

Length 41 m; beam 9 m.

Type: Fishing. MMSI: 261061000.

Date/timePositionNaut miles runAvg speedWind from/ knotsBaromVisibWave heightAir tempDewpointWater temp
2017-Sep-25 05:12N 55°25' E 018°38'1 6.8
2017-Sep-25 05:00N 55°24' E 018°37'4 7.4
2017-Sep-25 04:30N 55°20' E 018°40'1 2.9
2017-Sep-25 04:00N 55°20' E 018°42'2 0.7
2017-Sep-25 00:45N 55°20' E 018°46'0 0.6
2017-Sep-25 00:31N 55°20' E 018°46'0 0.6
2017-Sep-25 00:00N 55°20' E 018°46'3 6.7
2017-Sep-24 23:30N 55°20' E 018°40'3 6.6
2017-Sep-24 23:00N 55°20' E 018°34'0 0.6
2017-Sep-24 22:31N 55°20' E 018°35'3 0.9
2017-Sep-24 18:59N 55°20' E 018°40'6 7.4
2017-Sep-24 18:08N 55°14' E 018°40'2 8.9
2017-Sep-24 17:57N 55°12' E 018°40'4 8.8
2017-Sep-24 17:30N 55°08' E 018°40'4 7.8
2017-Sep-24 17:00N 55°04' E 018°39'2 4.9
2017-Sep-24 16:30N 55°05' E 018°35'1 2.0
2017-Sep-24 16:00N 55°05' E 018°37'1 3.0
2017-Sep-24 15:30N 55°04' E 018°39'3 5.1
2017-Sep-24 15:00N 55°02' E 018°40'4 8.1
2017-Sep-24 14:30N 54°58' E 018°40'2 3.7
2017-Sep-24 14:00N 54°56' E 018°40'0 1.0
2017-Sep-24 13:30N 54°56' E 018°41'1 2.1
2017-Sep-24 13:00N 54°55' E 018°42'1 1.8
2017-Sep-24 12:30N 54°55' E 018°44'3 5.7
2017-Sep-24 12:00N 54°53' E 018°40'4 8.3
2017-Sep-24 11:30N 54°49' E 018°40'2 4.9
2017-Sep-24 11:00N 54°50' E 018°36'4 7.7
2017-Sep-24 10:30N 54°52' E 018°30'4 7.7
2017-Sep-24 10:00N 54°54' E 018°25'4 7.5
2017-Sep-24 09:30N 54°56' E 018°20'4 7.0
2017-Sep-24 08:59N 55°00' E 018°20'27 5.8
2017-Sep-24 04:16N 55°27' E 018°22'0 0.4
2017-Sep-24 03:42N 55°27' E 018°22'0 0.4
2017-Sep-24 03:30N 55°27' E 018°22'2 0.5
2017-Sep-24 00:31N 55°27' E 018°25'0 0.5
2017-Sep-24 00:20N 55°27' E 018°25'0 0.5
2017-Sep-24 00:01N 55°27' E 018°25'5 6.6
2017-Sep-23 23:17N 55°26' E 018°17'4 4.0
2017-Sep-23 22:12N 55°25' E 018°10'0 0.5
2017-Sep-23 21:59N 55°25' E 018°10'  
2017-Sep-16 13:15N 54°45' E 014°55'1 2.1
2017-Sep-16 12:57N 54°45' E 014°56'114 3.8
2017-Sep-15 06:48N 54°52' E 018°13'2 5.6
2017-Sep-15 06:26N 54°52' E 018°16'2 5.7
2017-Sep-15 06:00N 54°52' E 018°21'3 6.0
2017-Sep-15 05:30N 54°51' E 018°26'  

Dump ship's entire track history